Main page
METAR-TAF:

METAR-TAF

Airports :

Kuwait City, Kuwait

Kuwait International Airport

latitude: 29-13N, longitude: 047-59E, elevation: 55 m

Current weather observation

The report was made 50 minutes ago, at 08:00 UTC
Wind 9 kt from the Southwest
Temperature 36°C
Humidity 21%
Pressure 1011 hPa
Visibility: 2000 m
(light) haze

METAR: OKBK 300800Z 22009KT 2000 -HZ NSC 36/10 Q1011 NOSIG

Time: 11:50 (08:50 UTC)

Forecast

The report was made 4 hours and 5 minutes ago, at 04:45 UTC
Forecast valid from 30 at 06 UTC to 01 at 12 UTC
Wind 8 kt from the South/Southeast with gusts up to 18 kt
Visibility: 2000 m
haze
Temporary
from 30 at 06 UTC to 30 at 15 UTC
rain
Probability 30% :
Temporary
from 30 at 09 UTC to 30 at 18 UTC
Visibility: 6000 m
Few clouds at a height of 3000 ft, Cumulonimbus.
thunderstorm, light rain

TAF: OKBK 300445Z 3006/0112 15008G18KT 2000 HZ NSC TEMPO 3006/3015 RA PROB30 TEMPO 3009/3018 6000 -TSRA FEW030CB

Weather observations and forecasts of more than 4000 airports (METAR and TAF reports).

The available stations are represented by yellow and red dots on the map.

Hover mouse over dot to see the name of the station.

Then click to see weather observations and forecasts.

To change the map : click on the green buttons with a black cross to zoom in, on the green button with a dash to zoom out, or on the green arrows for adjacent maps.


METAR-TAF: